LGKV/KVA METAR and TAF weather

Enter ICAO airport designator
Station Type Date Time Source
LGKV METAR 2020/04/05 05:50 UTC NOAA

LGKV 050550Z 03010KT 9999 -RA FEW012 BKN025 OVC070 10/07 Q1012


Station Type Date Time Source
LGKV Decoded METAR 2020/04/05 05:50 UTC NOAA

Chrysoupoli Airport , Greece (LGKV) 40-59N 024-36E 5M
Apr 05, 2020 - 01:50 AM EDT / 2020.04.05 0550 UTC
Wind: from the NNE (030 degrees) at 12 MPH (10 KT):0
Visibility: greater than 7 mile(s):0
Sky conditions: overcast
Weather: light rain
Temperature: 50 F (10 C)
Dew Point: 44 F (7 C)
Relative Humidity: 81%
Pressure (altimeter): 29.88 in. Hg (1012 hPa)
ob: LGKV 050550Z 03010KT 9999 -RA FEW012 BKN025 OVC070 10/07 Q1012
cycle: 6

Station Type Date Time Source
LGKV TAF 2020/04/05 06:15 UTC NOAA

TAF LGKV 050500Z 0506/0606 05015KT 7000 FEW010 BKN025 BKN070
TEMPO 0506/0515 6000 RA SCT008 BKN020 OVC070
TEMPO 0506/0603 05015G25KT
BECMG 0515/0517 FEW025 BKN070

Example: see airport list